Time;durP1;ratioP1;P1;durP2;ratioP2;P2;SDS_P1;SDS_P2;PMS_P1;PMS_P2;Temp;Humidity;BMP_temperature;BMP_pressure;BME280_temperature;BME280_humidity;BME280_pressure;Samples;Min_cycle;Max_cycle;Signal;HPM_P1;HPM_P2
2021/11/10 00:00:23;;;;;;;121.78;23.77;;;10.00;90.20;;;;;;5042161;28;20065;-63
2021/11/10 00:02:49;;;;;;;121.93;21.45;;;10.10;90.30;;;;;;5042861;28;20582;-63
2021/11/10 00:05:15;;;;;;;92.97;21.42;;;9.90;90.20;;;;;;5039623;28;20112;-62
2021/11/10 00:07:41;;;;;;;109.80;21.67;;;9.90;90.10;;;;;;5039539;28;20041;-63
2021/11/10 00:10:06;;;;;;;96.03;20.63;;;9.90;90.10;;;;;;5039541;28;20036;-60
2021/11/10 00:12:32;;;;;;;127.63;20.80;;;9.90;90.10;;;;;;5043414;28;20036;-60
2021/11/10 00:14:58;;;;;;;76.45;18.67;;;9.90;90.10;;;;;;5040263;28;20056;-60
2021/11/10 00:17:23;;;;;;;113.22;21.25;;;9.90;90.20;;;;;;5041229;28;20021;-60
2021/11/10 00:19:49;;;;;;;100.60;20.75;;;9.90;90.20;;;;;;5036374;28;20496;-59
2021/11/10 00:22:14;;;;;;;106.80;20.55;;;9.80;90.10;;;;;;5041103;28;20031;-60
2021/11/10 00:24:40;;;;;;;89.70;17.98;;;9.80;90.10;;;;;;5025089;28;20151;-60
2021/11/10 00:27:06;;;;;;;97.75;19.45;;;9.80;90.10;;;;;;5022967;28;20147;-60
2021/11/10 00:29:31;;;;;;;96.82;18.80;;;9.80;90.10;;;;;;5022364;28;20107;-60
2021/11/10 00:31:57;;;;;;;83.38;20.38;;;9.80;90.30;;;;;;5042056;28;20029;-60
2021/11/10 00:34:22;;;;;;;87.72;19.92;;;9.90;90.10;;;;;;5040442;28;20107;-60
2021/11/10 00:36:48;;;;;;;97.57;20.20;;;9.80;90.10;;;;;;5026463;28;20025;-60
2021/11/10 00:39:13;;;;;;;90.82;17.35;;;9.70;90.10;;;;;;5024632;28;20033;-62
2021/11/10 00:41:39;;;;;;;90.72;17.80;;;9.70;90.00;;;;;;5041599;28;20044;-62
2021/11/10 00:44:04;;;;;;;79.82;18.92;;;9.70;90.00;;;;;;5041878;28;20037;-63
2021/11/10 00:46:30;;;;;;;81.05;17.65;;;9.70;90.10;;;;;;5005982;28;20033;-63
2021/11/10 00:48:56;;;;;;;88.10;18.85;;;9.70;90.10;;;;;;5042755;28;20025;-63
2021/11/10 00:51:21;;;;;;;85.13;16.77;;;9.70;90.10;;;;;;5042492;28;20480;-62
2021/11/10 00:53:47;;;;;;;74.55;18.58;;;9.70;90.40;;;;;;5024705;28;20488;-62
2021/11/10 00:56:12;;;;;;;60.15;17.20;;;9.60;90.10;;;;;;5041269;28;20025;-63
2021/11/10 00:58:38;;;;;;;81.47;17.95;;;9.60;90.10;;;;;;5023273;28;20464;-62
2021/11/10 01:01:03;;;;;;;73.88;17.27;;;9.60;90.10;;;;;;5042544;28;20045;-62
2021/11/10 01:03:29;;;;;;;75.05;16.70;;;9.50;90.10;;;;;;5024895;28;20047;-63
2021/11/10 01:05:56;;;;;;;76.63;17.85;;;9.50;90.10;;;;;;5023244;28;20048;-62
2021/11/10 01:08:21;;;;;;;83.72;18.40;;;9.50;90.20;;;;;;5023714;28;20430;-63
2021/11/10 01:10:47;;;;;;;88.22;17.75;;;9.50;90.20;;;;;;5041531;28;20033;-63
2021/11/10 01:13:13;;;;;;;87.85;16.80;;;9.50;90.20;;;;;;5040964;28;20049;-63
2021/11/10 01:15:40;;;;;;;83.43;17.65;;;9.50;90.20;;;;;;5027377;28;20043;-62
2021/11/10 01:18:05;;;;;;;71.88;16.00;;;9.50;90.10;;;;;;5026118;28;20048;-62
2021/11/10 01:20:31;;;;;;;83.38;17.55;;;9.50;90.10;;;;;;5003452;28;20060;-62
2021/11/10 01:22:58;;;;;;;62.42;17.80;;;9.50;90.10;;;;;;5033029;28;20362;-63
2021/11/10 01:25:23;;;;;;;51.85;15.48;;;9.50;90.10;;;;;;5036509;28;21513;-63
2021/11/10 01:27:49;;;;;;;62.60;17.52;;;9.40;90.10;;;;;;5040282;28;20043;-62
2021/11/10 01:30:14;;;;;;;73.35;17.42;;;9.40;90.00;;;;;;5042497;28;21183;-62
2021/11/10 01:32:40;;;;;;;62.67;15.00;;;9.40;90.00;;;;;;5037395;28;20401;-63
2021/11/10 01:35:06;;;;;;;62.65;16.23;;;9.40;90.00;;;;;;5039749;28;20029;-63
2021/11/10 01:37:32;;;;;;;52.50;16.08;;;9.40;89.90;;;;;;5039892;28;20067;-63
2021/11/10 01:39:57;;;;;;;60.53;16.00;;;9.40;89.80;;;;;;5036542;28;20067;-63
2021/11/10 01:42:27;;;;;;;46.45;14.82;;;9.40;89.90;;;;;;5038770;28;20131;-62
2021/11/10 01:44:53;;;;;;;52.90;15.88;;;9.30;89.80;;;;;;5042303;28;20029;-62
2021/11/10 01:47:18;;;;;;;52.38;15.30;;;9.30;89.80;;;;;;5039691;28;20047;-62
2021/11/10 01:49:44;;;;;;;61.50;15.27;;;9.30;89.70;;;;;;5040236;28;20322;-62
2021/11/10 01:52:09;;;;;;;56.65;15.93;;;9.30;89.60;;;;;;5039268;28;20341;-62
2021/11/10 01:54:35;;;;;;;40.45;14.90;;;9.30;89.50;;;;;;5038859;28;20388;-63
2021/11/10 01:57:02;;;;;;;45.70;13.75;;;9.30;89.50;;;;;;5040207;28;20041;-63
2021/11/10 01:59:36;;;;;;;51.03;15.27;;;9.20;89.50;;;;;;5038240;28;20460;-64
2021/11/10 02:02:05;;;;;;;44.53;14.48;;;9.20;89.70;;;;;;5039561;28;20248;-64
2021/11/10 02:04:32;;;;;;;43.75;14.35;;;9.20;89.80;;;;;;5039194;28;20037;-62
2021/11/10 02:07:00;;;;;;;54.05;15.02;;;9.20;89.60;;;;;;5020992;28;20042;-67
2021/11/10 02:09:26;;;;;;;41.92;13.82;;;9.10;89.60;;;;;;5038571;28;20167;-63
2021/11/10 02:11:52;;;;;;;44.10;14.35;;;9.20;89.50;;;;;;5039438;28;20108;-63
2021/11/10 02:14:22;;;;;;;48.10;14.10;;;9.20;89.50;;;;;;5038640;28;20481;-63
2021/11/10 02:16:48;;;;;;;33.60;13.13;;;9.10;89.30;;;;;;5038006;28;20063;-63
2021/11/10 02:19:14;;;;;;;39.80;14.82;;;9.10;89.40;;;;;;5037248;28;20741;-62
2021/11/10 02:21:49;;;;;;;49.38;14.32;;;9.10;89.40;;;;;;5038712;28;20047;-63
2021/11/10 02:24:15;;;;;;;35.80;14.75;;;9.10;89.40;;;;;;5006812;28;20232;-62
2021/11/10 02:26:42;;;;;;;41.17;13.90;;;9.10;89.50;;;;;;5022850;28;20091;-63
2021/11/10 02:29:12;;;;;;;34.42;13.32;;;9.10;89.50;;;;;;5040594;28;20024;-63
2021/11/10 02:31:37;;;;;;;46.20;13.90;;;9.00;89.50;;;;;;5021224;28;20047;-63
2021/11/10 02:34:03;;;;;;;34.70;13.75;;;9.00;89.60;;;;;;5005210;28;20025;-63
2021/11/10 02:36:29;;;;;;;33.60;12.60;;;9.00;89.60;;;;;;5042378;28;20021;-63
2021/11/10 02:38:55;;;;;;;38.50;12.88;;;9.00;89.70;;;;;;5001172;28;20366;-62
2021/11/10 02:41:20;;;;;;;38.10;12.85;;;9.00;89.60;;;;;;5005386;28;20107;-62
2021/11/10 02:43:46;;;;;;;28.98;13.45;;;9.00;89.60;;;;;;5024348;28;20041;-63
2021/11/10 02:46:12;;;;;;;33.45;14.05;;;9.00;89.70;;;;;;5025550;28;20052;-63
2021/11/10 02:48:38;;;;;;;28.73;12.68;;;8.90;89.60;;;;;;5028459;28;20091;-63
2021/11/10 02:51:07;;;;;;;30.05;13.35;;;9.00;89.70;;;;;;5043483;28;20151;-62
2021/11/10 02:53:33;;;;;;;38.22;13.68;;;8.90;89.50;;;;;;5042429;28;20124;-63
2021/11/10 02:55:58;;;;;;;32.10;13.27;;;8.90;89.60;;;;;;5025141;28;20334;-63
2021/11/10 02:58:24;;;;;;;31.85;13.45;;;8.90;89.70;;;;;;5000359;28;20032;-63
2021/11/10 03:00:49;;;;;;;33.75;13.65;;;8.90;89.60;;;;;;5011401;28;20048;-62
2021/11/10 03:03:15;;;;;;;85.05;18.10;;;8.90;89.60;;;;;;5044595;28;20029;-63
2021/11/10 03:05:45;;;;;;;81.30;17.52;;;8.80;89.60;;;;;;5013566;28;20044;-63
2021/11/10 03:08:10;;;;;;;66.47;16.85;;;8.80;89.70;;;;;;5024523;28;20363;-63
2021/11/10 03:10:36;;;;;;;102.03;20.20;;;8.80;89.70;;;;;;5043269;28;20041;-63
2021/11/10 03:13:01;;;;;;;63.88;16.23;;;8.80;89.70;;;;;;5042285;28;20069;-63
2021/11/10 03:15:27;;;;;;;102.50;18.77;;;8.80;89.80;;;;;;5027760;28;20033;-63
2021/11/10 03:17:52;;;;;;;66.15;16.23;;;8.80;89.90;;;;;;5042806;28;20028;-63
2021/11/10 03:20:18;;;;;;;66.90;16.77;;;8.80;89.70;;;;;;5025842;28;20487;-62
2021/11/10 03:22:44;;;;;;;59.50;16.42;;;8.80;89.70;;;;;;5028186;28;20049;-63
2021/11/10 03:25:09;;;;;;;68.10;16.83;;;8.80;89.70;;;;;;5042631;28;20048;-62
2021/11/10 03:27:35;;;;;;;69.65;15.70;;;8.80;89.60;;;;;;5044444;28;20334;-62
2021/11/10 03:30:01;;;;;;;59.20;16.83;;;8.80;89.70;;;;;;5022471;28;20116;-62
2021/11/10 03:32:27;;;;;;;65.43;15.82;;;8.70;89.60;;;;;;5041356;28;20027;-62
2021/11/10 03:34:52;;;;;;;63.97;16.60;;;8.80;89.60;;;;;;5037698;28;20388;-61
2021/11/10 03:37:18;;;;;;;58.55;15.15;;;8.80;89.70;;;;;;5042642;28;20455;-62
2021/11/10 03:39:43;;;;;;;52.60;13.65;;;8.70;89.80;;;;;;5040806;28;20474;-62
2021/11/10 03:42:09;;;;;;;46.03;14.77;;;8.70;89.80;;;;;;5042661;28;20040;-62
2021/11/10 03:44:34;;;;;;;46.35;14.13;;;8.70;89.80;;;;;;5022899;28;20025;-62
2021/11/10 03:47:00;;;;;;;41.72;13.82;;;8.70;89.80;;;;;;5041744;28;20084;-62
2021/11/10 03:49:25;;;;;;;56.58;14.68;;;8.70;89.80;;;;;;5039530;28;20523;-62
2021/11/10 03:51:52;;;;;;;49.60;14.27;;;8.70;89.90;;;;;;5041386;28;20037;-62
2021/11/10 03:54:18;;;;;;;47.00;14.38;;;8.60;89.80;;;;;;5037178;28;20036;-62
2021/11/10 03:56:44;;;;;;;57.05;13.93;;;8.60;89.90;;;;;;5026304;28;20065;-62
2021/11/10 03:59:09;;;;;;;55.10;15.23;;;8.60;89.90;;;;;;5040646;28;20025;-62
2021/11/10 04:01:35;;;;;;;48.45;13.40;;;8.60;89.90;;;;;;5043350;28;20059;-62
2021/11/10 04:04:00;;;;;;;49.42;14.45;;;8.60;89.90;;;;;;5042359;28;20048;-62
2021/11/10 04:06:26;;;;;;;56.92;14.07;;;8.60;90.00;;;;;;5041793;28;20033;-62
2021/11/10 04:08:51;;;;;;;41.20;13.35;;;8.60;90.00;;;;;;5043363;28;20037;-62
2021/11/10 04:11:19;;;;;;;42.55;13.68;;;8.60;90.10;;;;;;5028292;28;20029;-62
2021/11/10 04:13:45;;;;;;;40.53;13.75;;;8.50;90.10;;;;;;5039571;28;20112;-62
2021/11/10 04:16:10;;;;;;;49.15;14.23;;;8.60;90.10;;;;;;5038716;28;20119;-62
2021/11/10 04:18:36;;;;;;;44.60;13.70;;;8.50;90.10;;;;;;5042641;28;20029;-62
2021/11/10 04:21:02;;;;;;;44.33;13.15;;;8.50;90.20;;;;;;5041933;28;20033;-62
2021/11/10 04:23:29;;;;;;;61.92;14.57;;;8.50;90.30;;;;;;5040531;28;20678;-62
2021/11/10 04:25:55;;;;;;;41.22;12.27;;;8.50;90.30;;;;;;5043143;28;20029;-62
2021/11/10 04:28:21;;;;;;;41.38;13.38;;;8.50;90.30;;;;;;5041086;28;20040;-62
2021/11/10 04:30:46;;;;;;;42.80;12.52;;;8.50;90.30;;;;;;5039025;28;20139;-62
2021/11/10 04:33:12;;;;;;;41.08;13.10;;;8.50;90.30;;;;;;5044005;28;20104;-62
2021/11/10 04:35:41;;;;;;;37.33;12.38;;;8.50;90.30;;;;;;5040628;28;20029;-62
2021/11/10 04:38:07;;;;;;;41.45;13.55;;;8.50;90.40;;;;;;5041682;28;20104;-62
2021/11/10 04:40:32;;;;;;;39.00;13.88;;;8.40;90.40;;;;;;5038342;28;20100;-62
2021/11/10 04:42:58;;;;;;;32.13;11.98;;;8.40;90.40;;;;;;5040320;28;20045;-62
2021/11/10 04:45:30;;;;;;;38.20;12.98;;;8.40;90.40;;;;;;5041058;28;20082;-62
2021/11/10 04:47:56;;;;;;;34.80;12.68;;;8.40;90.40;;;;;;5040987;28;20624;-62
2021/11/10 04:50:21;;;;;;;39.53;13.02;;;8.40;90.40;;;;;;5041311;28;20086;-62
2021/11/10 04:52:47;;;;;;;39.25;12.43;;;8.40;90.40;;;;;;5041864;28;20098;-63
2021/11/10 04:55:12;;;;;;;26.15;12.25;;;8.40;90.70;;;;;;5039627;28;20056;-62
2021/11/10 04:57:38;;;;;;;41.60;12.13;;;8.40;90.40;;;;;;5041870;28;20055;-62
2021/11/10 05:00:05;;;;;;;33.20;12.15;;;8.40;90.40;;;;;;5041539;28;20029;-62
2021/11/10 05:02:30;;;;;;;38.70;13.38;;;8.30;90.40;;;;;;5040653;28;20120;-62
2021/11/10 05:04:56;;;;;;;38.40;11.18;;;8.30;90.50;;;;;;5040477;28;20111;-62
2021/11/10 05:07:21;;;;;;;33.63;11.48;;;8.30;90.50;;;;;;5025710;28;20186;-62
2021/11/10 05:09:48;;;;;;;35.78;12.80;;;8.30;90.50;;;;;;5041139;28;20532;-62
2021/11/10 05:12:13;;;;;;;43.67;12.52;;;8.30;90.50;;;;;;5040590;28;20036;-62
2021/11/10 05:14:39;;;;;;;30.13;11.82;;;8.30;90.50;;;;;;5041331;28;20029;-62
2021/11/10 05:17:05;;;;;;;41.28;11.90;;;8.30;90.50;;;;;;5039410;28;20037;-62
2021/11/10 05:19:30;;;;;;;33.42;11.65;;;8.30;90.50;;;;;;5042064;28;20026;-62
2021/11/10 05:21:56;;;;;;;30.15;11.55;;;8.20;90.50;;;;;;5037133;28;20040;-62
2021/11/10 05:24:22;;;;;;;37.42;13.00;;;8.20;90.40;;;;;;5039439;28;20036;-62
2021/11/10 05:26:48;;;;;;;27.75;12.50;;;8.20;90.40;;;;;;5041430;28;20044;-62
2021/11/10 05:29:14;;;;;;;30.52;11.13;;;8.20;90.50;;;;;;5040585;28;20028;-62
2021/11/10 05:31:39;;;;;;;23.38;11.15;;;8.20;90.50;;;;;;5041614;28;20040;-62
2021/11/10 05:34:05;;;;;;;27.63;11.32;;;8.20;90.50;;;;;;5039388;28;20084;-62
2021/11/10 05:36:30;;;;;;;29.98;11.23;;;8.20;90.50;;;;;;5042187;28;20542;-62
2021/11/10 05:38:56;;;;;;;26.20;10.60;;;8.20;90.40;;;;;;5041481;28;20051;-62
2021/11/10 05:41:21;;;;;;;29.23;11.98;;;8.20;90.40;;;;;;5038903;28;20047;-62
2021/11/10 05:43:47;;;;;;;27.27;10.90;;;8.10;90.50;;;;;;5039913;28;20062;-62
2021/11/10 05:46:13;;;;;;;28.30;11.40;;;8.10;90.50;;;;;;5038619;28;20506;-62
2021/11/10 05:48:38;;;;;;;26.67;11.00;;;8.10;90.50;;;;;;5040567;28;20541;-62
2021/11/10 05:51:04;;;;;;;24.67;11.55;;;8.10;90.50;;;;;;5041020;28;20039;-62
2021/11/10 05:53:30;;;;;;;27.15;10.93;;;8.10;90.50;;;;;;5040686;28;20044;-62
2021/11/10 05:55:56;;;;;;;32.25;10.30;;;8.10;90.60;;;;;;5037419;28;20032;-62
2021/11/10 05:58:23;;;;;;;21.15;10.15;;;8.10;90.60;;;;;;5039014;28;20021;-62
2021/11/10 06:00:50;;;;;;;28.35;11.15;;;8.00;90.50;;;;;;5039227;28;20044;-62
2021/11/10 06:03:15;;;;;;;33.10;11.48;;;8.10;90.60;;;;;;5042504;28;20381;-62
2021/11/10 06:05:41;;;;;;;25.50;10.98;;;8.10;90.60;;;;;;5024322;28;20040;-62
2021/11/10 06:08:06;;;;;;;23.15;10.00;;;8.00;90.60;;;;;;5039785;28;20080;-62
2021/11/10 06:10:32;;;;;;;25.02;10.23;;;8.00;90.60;;;;;;5037564;28;20127;-62
2021/11/10 06:12:57;;;;;;;27.00;10.40;;;8.00;90.60;;;;;;5037491;28;20040;-62
2021/11/10 06:15:23;;;;;;;29.13;10.38;;;8.00;90.50;;;;;;5040862;28;20594;-62
2021/11/10 06:17:48;;;;;;;25.45;10.05;;;8.00;90.50;;;;;;5041758;28;20182;-62
2021/11/10 06:20:14;;;;;;;25.55;10.95;;;8.20;90.60;;;;;;5018660;28;20028;-62
2021/11/10 06:22:40;;;;;;;28.02;10.38;;;8.00;90.50;;;;;;5028649;28;20045;-62
2021/11/10 06:25:06;;;;;;;23.45;10.77;;;8.00;90.60;;;;;;5001759;28;20401;-62
2021/11/10 06:27:32;;;;;;;21.92;9.60;;;8.00;90.60;;;;;;5022039;28;20029;-62
2021/11/10 06:29:59;;;;;;;27.20;10.90;;;8.00;90.60;;;;;;5019611;28;20061;-62
2021/11/10 06:32:24;;;;;;;26.42;10.73;;;7.90;90.60;;;;;;4999256;28;20029;-62
2021/11/10 06:34:50;;;;;;;17.88;9.77;;;8.00;90.60;;;;;;5001454;28;20090;-62
2021/11/10 06:37:15;;;;;;;23.65;9.70;;;8.00;90.60;;;;;;5002196;28;20141;-62
2021/11/10 06:39:41;;;;;;;19.27;10.45;;;7.90;90.60;;;;;;5000881;28;20114;-62
2021/11/10 06:42:07;;;;;;;21.90;10.73;;;7.90;90.60;;;;;;5005420;28;20024;-62
2021/11/10 06:44:32;;;;;;;21.23;10.57;;;7.90;90.70;;;;;;4997957;28;20440;-62
2021/11/10 06:46:59;;;;;;;21.58;10.00;;;7.90;90.70;;;;;;5000479;28;20090;-62
2021/11/10 06:49:26;;;;;;;25.15;10.52;;;7.80;90.60;;;;;;4998950;28;20048;-62
2021/11/10 06:51:52;;;;;;;22.65;10.38;;;7.90;90.60;;;;;;5013059;28;20041;-62
2021/11/10 06:54:17;;;;;;;23.13;9.85;;;7.90;90.60;;;;;;5001264;28;20385;-62
2021/11/10 06:56:43;;;;;;;23.33;11.27;;;7.90;90.70;;;;;;4999826;28;20561;-62
2021/11/10 06:59:09;;;;;;;25.88;10.07;;;7.90;90.60;;;;;;4978129;28;20030;-62
2021/11/10 07:01:35;;;;;;;24.83;10.45;;;7.80;90.60;;;;;;4994829;28;20021;-62
2021/11/10 07:04:00;;;;;;;20.13;9.82;;;7.80;90.60;;;;;;4997614;28;20453;-62
2021/11/10 07:06:26;;;;;;;30.38;11.05;;;7.80;90.60;;;;;;4994466;28;20068;-62
2021/11/10 07:08:51;;;;;;;21.17;9.73;;;7.80;90.70;;;;;;4998609;28;20068;-62
2021/11/10 07:11:17;;;;;;;22.83;11.35;;;7.80;90.70;;;;;;4992747;28;20128;-62
2021/11/10 07:13:43;;;;;;;24.20;10.70;;;7.90;90.70;;;;;;4981936;28;20035;-62
2021/11/10 07:16:08;;;;;;;19.98;11.10;;;7.90;90.70;;;;;;5016479;28;20048;-62
2021/11/10 07:18:34;;;;;;;27.55;10.90;;;7.80;90.70;;;;;;4998663;28;20033;-62
2021/11/10 07:20:59;;;;;;;24.02;10.93;;;7.80;90.60;;;;;;4982051;28;20657;-62
2021/11/10 07:23:25;;;;;;;27.85;10.55;;;7.90;90.70;;;;;;5029791;28;20048;-62
2021/11/10 07:25:51;;;;;;;28.95;9.95;;;7.90;90.60;;;;;;5034597;28;20036;-62
2021/11/10 07:28:16;;;;;;;24.20;11.63;;;7.80;90.60;;;;;;5039238;28;20021;-62
2021/11/10 07:30:42;;;;;;;24.73;11.35;;;7.90;90.60;;;;;;5043283;28;20055;-62
2021/11/10 07:33:08;;;;;;;59.78;13.55;;;7.90;90.60;;;;;;5038922;28;20389;-62
2021/11/10 07:35:34;;;;;;;45.95;12.77;;;7.90;90.70;;;;;;5042577;28;20448;-62
2021/11/10 07:38:00;;;;;;;42.13;12.50;;;7.90;90.70;;;;;;5041639;28;20061;-62
2021/11/10 07:40:25;;;;;;;40.67;12.52;;;7.90;90.80;;;;;;5044269;28;20407;-62
2021/11/10 07:42:51;;;;;;;45.60;12.18;;;7.90;90.80;;;;;;5039347;28;20063;-62
2021/11/10 07:45:35;;;;;;;39.60;13.02;;;7.90;90.80;;;;;;5026479;28;20179;-62
2021/11/10 07:48:02;;;;;;;38.42;12.18;;;7.90;90.80;;;;;;5045101;28;20069;-62
2021/11/10 07:50:28;;;;;;;37.35;12.13;;;8.00;90.70;;;;;;5043509;28;20079;-62
2021/11/10 07:52:54;;;;;;;39.47;12.75;;;7.90;90.70;;;;;;5042269;28;20036;-62
2021/11/10 07:55:19;;;;;;;41.63;13.15;;;8.00;90.70;;;;;;5043503;28;20468;-62
2021/11/10 07:57:45;;;;;;;108.05;18.05;;;8.00;90.80;;;;;;5041373;28;20076;-62
2021/11/10 08:00:12;;;;;;;63.55;14.95;;;8.00;90.80;;;;;;5041386;28;20588;-63
2021/11/10 08:02:38;;;;;;;62.55;15.00;;;8.00;90.80;;;;;;5041134;28;20056;-62
2021/11/10 08:05:04;;;;;;;68.97;16.17;;;8.00;90.80;;;;;;5043235;28;20446;-62
2021/11/10 08:07:30;;;;;;;78.38;16.58;;;8.00;90.80;;;;;;5041967;28;20036;-62
2021/11/10 08:09:55;;;;;;;47.08;14.63;;;8.00;90.80;;;;;;5021306;28;20024;-62
2021/11/10 08:12:21;;;;;;;85.50;17.75;;;8.00;91.00;;;;;;5035723;28;20104;-62
2021/11/10 08:14:47;;;;;;;54.53;15.43;;;8.00;90.70;;;;;;5038929;28;20031;-62
2021/11/10 08:17:13;;;;;;;81.03;16.67;;;8.10;90.70;;;;;;5037046;28;20651;-62
2021/11/10 08:19:38;;;;;;;50.63;15.68;;;8.10;90.80;;;;;;5034585;28;20032;-62
2021/11/10 08:22:05;;;;;;;76.35;16.48;;;7.90;91.10;;;;;;5037621;28;20086;-62
2021/11/10 08:24:32;;;;;;;68.45;17.88;;;8.10;90.90;;;;;;5038968;28;20037;-62
2021/11/10 08:26:57;;;;;;;64.00;15.27;;;8.10;90.90;;;;;;5035813;28;20119;-62
2021/11/10 08:29:23;;;;;;;136.07;23.65;;;8.10;90.80;;;;;;5003279;28;20033;-62
2021/11/10 08:31:49;;;;;;;89.20;18.73;;;8.10;90.80;;;;;;5036573;28;20215;-62
2021/11/10 08:34:15;;;;;;;178.45;24.27;;;8.10;90.80;;;;;;5035467;28;20031;-62
2021/11/10 08:36:41;;;;;;;131.60;21.08;;;8.10;90.90;;;;;;5038946;28;20028;-62
2021/11/10 08:39:06;;;;;;;71.97;18.00;;;8.10;90.90;;;;;;5036335;28;20102;-62
2021/11/10 08:41:32;;;;;;;58.03;16.42;;;8.10;90.90;;;;;;5021045;28;20056;-62
2021/11/10 08:43:58;;;;;;;67.22;16.48;;;8.20;90.90;;;;;;5033637;28;20048;-62
2021/11/10 08:46:24;;;;;;;76.57;17.35;;;8.20;91.00;;;;;;5031550;28;20122;-62
2021/11/10 08:48:50;;;;;;;68.15;17.42;;;8.20;91.00;;;;;;5038115;28;21614;-62
2021/11/10 08:51:15;;;;;;;56.35;16.98;;;8.20;90.90;;;;;;5039985;28;20035;-62
2021/11/10 08:53:41;;;;;;;50.08;16.45;;;8.40;90.90;;;;;;5023921;28;20748;-62
2021/11/10 08:56:07;;;;;;;58.47;15.50;;;8.20;90.80;;;;;;5036085;28;20041;-62
2021/11/10 08:58:33;;;;;;;53.55;16.02;;;8.20;90.80;;;;;;5021599;28;20588;-62
2021/11/10 09:00:59;;;;;;;81.97;18.10;;;8.20;90.80;;;;;;5042065;28;20064;-62
2021/11/10 09:03:25;;;;;;;77.93;16.45;;;8.20;90.80;;;;;;5038281;28;20018;-62
2021/11/10 09:05:51;;;;;;;49.05;16.85;;;8.20;90.80;;;;;;5015944;28;20531;-62
2021/11/10 09:08:19;;;;;;;82.68;16.60;;;8.30;90.90;;;;;;5038344;28;20029;-62
2021/11/10 09:10:45;;;;;;;50.97;16.13;;;8.30;90.90;;;;;;5011580;28;20578;-62
2021/11/10 09:13:11;;;;;;;80.80;17.70;;;8.30;90.90;;;;;;5034907;28;20047;-61
2021/11/10 09:15:37;;;;;;;59.08;16.67;;;8.30;90.90;;;;;;5038160;28;20025;-62
2021/11/10 09:18:05;;;;;;;47.10;17.85;;;8.30;90.90;;;;;;5034252;28;20062;-62
2021/11/10 09:20:30;;;;;;;53.50;16.23;;;8.30;90.90;;;;;;5040363;28;20035;-62
2021/11/10 09:22:56;;;;;;;88.45;18.80;;;8.30;90.90;;;;;;5036091;28;20060;-62
2021/11/10 09:25:23;;;;;;;76.57;18.67;;;8.30;90.90;;;;;;5032891;28;20467;-62
2021/11/10 09:27:48;;;;;;;61.15;16.17;;;8.40;91.10;;;;;;5036829;28;20123;-62
2021/11/10 09:30:15;;;;;;;65.57;17.67;;;8.40;91.00;;;;;;5017913;28;20175;-62
2021/11/10 09:32:41;;;;;;;59.80;15.63;;;8.40;90.90;;;;;;5031125;28;20020;-62
2021/11/10 09:35:08;;;;;;;66.63;18.30;;;8.40;90.90;;;;;;5029849;28;20032;-62
2021/11/10 09:37:34;;;;;;;64.38;17.42;;;8.50;91.00;;;;;;5036604;28;20029;-62
2021/11/10 09:40:01;;;;;;;62.08;16.45;;;8.40;91.00;;;;;;5038439;28;20033;-62
2021/11/10 09:42:26;;;;;;;53.95;15.63;;;8.50;91.10;;;;;;5037002;28;20037;-62
2021/11/10 09:44:54;;;;;;;53.25;16.88;;;8.50;91.10;;;;;;5025246;28;22092;-62
2021/11/10 09:47:19;;;;;;;52.53;17.25;;;8.50;91.10;;;;;;5018894;28;20698;-62
2021/11/10 09:49:46;;;;;;;66.00;17.70;;;8.50;91.10;;;;;;5022256;28;20036;-62
2021/11/10 09:52:12;;;;;;;59.10;17.55;;;8.60;91.20;;;;;;5037660;28;20032;-62
2021/11/10 09:54:37;;;;;;;61.40;18.42;;;8.60;91.30;;;;;;5034568;28;20147;-62
2021/11/10 09:57:03;;;;;;;54.63;16.60;;;8.70;91.20;;;;;;5037919;28;20121;-62
2021/11/10 09:59:29;;;;;;;52.13;15.50;;;8.70;91.20;;;;;;5034673;28;20179;-62
2021/11/10 10:01:54;;;;;;;187.57;27.58;;;8.70;91.10;;;;;;5039890;28;20314;-62
2021/11/10 10:04:20;;;;;;;67.85;19.08;;;8.70;91.10;;;;;;5037196;28;20037;-62
2021/11/10 10:06:45;;;;;;;57.38;17.80;;;8.70;91.10;;;;;;5037123;28;20092;-62
2021/11/10 10:09:12;;;;;;;51.00;17.90;;;8.80;91.10;;;;;;5036827;28;20439;-62
2021/11/10 10:11:38;;;;;;;89.95;21.50;;;8.80;91.00;;;;;;5039897;28;20483;-62
2021/11/10 10:14:03;;;;;;;55.35;15.85;;;8.80;91.10;;;;;;5037510;28;20135;-62
2021/11/10 10:16:30;;;;;;;58.47;17.17;;;8.80;91.00;;;;;;5035038;28;20038;-62
2021/11/10 10:19:09;;;;;;;99.00;21.50;;;8.80;90.90;;;;;;5035943;28;20056;-62
2021/11/10 10:21:35;;;;;;;52.40;17.15;;;8.90;91.00;;;;;;5017033;28;20384;-62
2021/11/10 10:24:01;;;;;;;75.85;19.10;;;8.90;91.10;;;;;;5019453;28;20543;-62
2021/11/10 10:26:27;;;;;;;63.60;19.85;;;9.00;91.10;;;;;;5007194;28;20060;-62
2021/11/10 10:28:55;;;;;;;65.18;20.10;;;9.00;91.10;;;;;;5023637;28;20128;-62
2021/11/10 10:31:23;;;;;;;56.95;18.08;;;9.00;91.20;;;;;;5019547;28;20033;-62
2021/11/10 10:33:51;;;;;;;54.63;18.83;;;9.00;91.20;;;;;;5023960;28;20167;-62
2021/11/10 10:36:24;;;;;;;67.95;18.55;;;9.00;91.10;;;;;;5023318;28;20035;-62
2021/11/10 10:39:10;;;;;;;56.05;18.90;;;9.10;91.10;;;;;;5005338;28;20025;-62
2021/11/10 10:41:40;;;;;;;63.33;17.10;;;9.10;91.00;;;;;;5005067;28;20037;-62
2021/11/10 10:44:07;;;;;;;50.70;17.38;;;9.10;91.10;;;;;;5036596;28;20537;-62
2021/11/10 10:46:37;;;;;;;60.80;19.63;;;9.10;91.00;;;;;;5038217;28;20152;-62
2021/11/10 10:49:20;;;;;;;40.50;17.38;;;9.10;91.00;;;;;;5021096;28;20064;-62
2021/11/10 10:51:47;;;;;;;40.53;17.75;;;9.20;91.00;;;;;;5020422;28;20065;-62
2021/11/10 10:54:12;;;;;;;60.92;18.05;;;9.20;90.90;;;;;;5023326;28;20075;-62
2021/11/10 10:56:39;;;;;;;36.40;17.08;;;9.20;90.90;;;;;;5007109;28;20033;-62
2021/11/10 10:59:09;;;;;;;43.38;17.90;;;9.20;90.90;;;;;;5004804;28;20106;-62
2021/11/10 11:01:35;;;;;;;42.22;16.50;;;9.20;90.90;;;;;;5024529;28;20056;-62
2021/11/10 11:04:03;;;;;;;48.83;17.02;;;9.20;90.90;;;;;;5028256;28;20033;-62
2021/11/10 11:07:02;;;;;;;45.33;17.83;;;9.20;90.80;;;;;;5024200;28;20561;-62
2021/11/10 11:09:43;;;;;;;40.13;17.63;;;9.30;90.90;;;;;;5039920;28;20119;-62
2021/11/10 11:12:16;;;;;;;63.42;19.10;;;9.30;90.90;;;;;;5024130;28;20272;-62
2021/11/10 11:14:54;;;;;;;61.30;19.33;;;9.30;90.80;;;;;;5041588;28;20037;-62
2021/11/10 11:17:22;;;;;;;45.25;17.05;;;9.40;90.80;;;;;;5020789;28;20448;-62
2021/11/10 11:20:03;;;;;;;53.67;17.63;;;9.40;90.70;;;;;;5044119;28;20063;-62
2021/11/10 11:22:30;;;;;;;59.28;19.02;;;9.40;90.70;;;;;;5035958;28;20056;-62
2021/11/10 11:24:56;;;;;;;54.40;19.25;;;9.50;90.70;;;;;;5041142;28;20148;-63
2021/11/10 11:27:27;;;;;;;75.22;19.55;;;9.50;90.80;;;;;;5025263;28;20389;-62
2021/11/10 11:30:08;;;;;;;59.75;19.73;;;9.50;90.80;;;;;;5025207;28;20546;-62
2021/11/10 11:32:37;;;;;;;65.95;19.13;;;9.50;90.80;;;;;;5036098;28;20044;-62
2021/11/10 11:35:23;;;;;;;55.17;18.60;;;9.50;90.80;;;;;;5039215;28;20462;-62
2021/11/10 11:37:49;;;;;;;74.93;21.60;;;9.50;90.70;;;;;;5020902;28;20037;-62
2021/11/10 11:40:19;;;;;;;57.65;19.98;;;9.50;91.00;;;;;;5033900;28;20036;-62
2021/11/10 11:42:48;;;;;;;67.55;20.30;;;9.60;90.80;;;;;;5037582;28;20021;-62
2021/11/10 11:45:15;;;;;;;63.45;20.25;;;9.70;90.80;;;;;;5020959;28;20464;-62
2021/11/10 11:47:42;;;;;;;68.90;20.92;;;9.60;90.70;;;;;;5020791;28;20480;-62
2021/11/10 11:50:08;;;;;;;69.15;20.75;;;9.60;90.70;;;;;;5018132;28;20025;-62
2021/11/10 11:52:34;;;;;;;49.60;18.73;;;9.60;90.70;;;;;;5037064;28;20743;-62
2021/11/10 11:55:22;;;;;;;72.25;21.02;;;9.70;90.70;;;;;;5019844;28;20120;-62
2021/11/10 11:58:02;;;;;;;82.70;20.83;;;9.70;90.70;;;;;;5010727;28;20174;-62
2021/11/10 12:00:33;;;;;;;64.15;18.33;;;9.70;90.60;;;;;;5001355;28;20058;-62
2021/11/10 12:02:58;;;;;;;74.80;20.88;;;9.70;90.60;;;;;;5023834;28;20492;-62
2021/11/10 12:05:25;;;;;;;65.43;19.60;;;9.80;90.50;;;;;;5022529;28;20069;-62
2021/11/10 12:07:51;;;;;;;64.53;20.90;;;9.80;90.60;;;;;;5007001;28;20029;-62
2021/11/10 12:10:20;;;;;;;68.38;21.20;;;9.80;90.70;;;;;;5024944;28;20025;-62
2021/11/10 12:12:46;;;;;;;66.30;20.88;;;9.80;90.80;;;;;;5039114;28;20064;-62
2021/11/10 12:15:11;;;;;;;130.65;25.27;;;9.80;90.80;;;;;;5022886;28;20184;-62
2021/11/10 12:18:05;;;;;;;92.63;23.55;;;9.80;90.80;;;;;;5025159;28;20036;-61
2021/11/10 12:20:37;;;;;;;80.93;22.67;;;9.90;90.70;;;;;;5024524;28;20021;-62
2021/11/10 12:23:04;;;;;;;70.88;21.48;;;9.90;90.70;;;;;;5039474;28;20404;-62
2021/11/10 12:25:29;;;;;;;69.82;21.70;;;10.00;90.60;;;;;;5036301;28;20095;-61
2021/11/10 12:27:55;;;;;;;91.30;22.05;;;10.00;90.50;;;;;;5000979;28;20040;-62
2021/11/10 12:30:30;;;;;;;80.15;21.08;;;10.00;90.50;;;;;;5021188;28;20029;-62
2021/11/10 12:33:05;;;;;;;74.35;23.35;;;10.00;90.40;;;;;;5016187;28;20355;-62